sensor_id;sensor_type;location;lat;lon;timestamp;P1;durP1;ratioP1;P2;durP2;ratioP2
483;SDS011;228;48.922;12.198;2023-02-26T00:00:06;1.43;;;1.30;;
483;SDS011;228;48.922;12.198;2023-02-26T00:02:43;1.40;;;1.10;;
483;SDS011;228;48.922;12.198;2023-02-26T00:05:10;2.13;;;1.27;;
483;SDS011;228;48.922;12.198;2023-02-26T00:07:37;1.80;;;1.10;;
483;SDS011;228;48.922;12.198;2023-02-26T00:10:05;1.17;;;1.10;;
483;SDS011;228;48.922;12.198;2023-02-26T00:12:37;2.10;;;1.20;;
483;SDS011;228;48.922;12.198;2023-02-26T00:15:05;0.90;;;0.90;;
483;SDS011;228;48.922;12.198;2023-02-26T00:17:35;2.03;;;1.20;;
483;SDS011;228;48.922;12.198;2023-02-26T00:20:28;2.93;;;1.50;;
483;SDS011;228;48.922;12.198;2023-02-26T00:22:54;1.93;;;1.37;;
483;SDS011;228;48.922;12.198;2023-02-26T00:25:21;1.67;;;1.53;;
483;SDS011;228;48.922;12.198;2023-02-26T00:27:47;2.73;;;2.27;;
483;SDS011;228;48.922;12.198;2023-02-26T00:30:14;1.47;;;1.37;;
483;SDS011;228;48.922;12.198;2023-02-26T00:32:40;2.20;;;1.27;;
483;SDS011;228;48.922;12.198;2023-02-26T00:35:08;2.40;;;1.80;;
483;SDS011;228;48.922;12.198;2023-02-26T00:45:53;1.87;;;1.20;;
483;SDS011;228;48.922;12.198;2023-02-26T00:48:50;1.27;;;1.10;;
483;SDS011;228;48.922;12.198;2023-02-26T00:51:57;2.57;;;1.37;;
483;SDS011;228;48.922;12.198;2023-02-26T00:54:27;1.53;;;1.40;;
483;SDS011;228;48.922;12.198;2023-02-26T00:56:55;1.97;;;1.43;;
483;SDS011;228;48.922;12.198;2023-02-26T00:59:23;1.37;;;1.27;;
483;SDS011;228;48.922;12.198;2023-02-26T01:01:50;1.60;;;1.47;;
483;SDS011;228;48.922;12.198;2023-02-26T01:04:19;5.17;;;1.40;;
483;SDS011;228;48.922;12.198;2023-02-26T01:06:48;4.33;;;1.70;;
483;SDS011;228;48.922;12.198;2023-02-26T01:11:51;1.53;;;1.40;;
483;SDS011;228;48.922;12.198;2023-02-26T01:14:26;1.20;;;1.07;;
483;SDS011;228;48.922;12.198;2023-02-26T01:28:01;1.57;;;1.40;;
483;SDS011;228;48.922;12.198;2023-02-26T01:30:28;1.10;;;1.00;;
483;SDS011;228;48.922;12.198;2023-02-26T01:33:01;1.03;;;0.93;;
483;SDS011;228;48.922;12.198;2023-02-26T01:38:24;5.73;;;1.10;;
483;SDS011;228;48.922;12.198;2023-02-26T01:44:46;1.03;;;0.97;;
483;SDS011;228;48.922;12.198;2023-02-26T01:49:45;1.20;;;1.00;;
483;SDS011;228;48.922;12.198;2023-02-26T01:54:56;1.03;;;0.80;;
483;SDS011;228;48.922;12.198;2023-02-26T01:57:23;2.17;;;1.10;;
483;SDS011;228;48.922;12.198;2023-02-26T01:59:50;1.50;;;1.07;;
483;SDS011;228;48.922;12.198;2023-02-26T02:02:18;5.37;;;1.30;;
483;SDS011;228;48.922;12.198;2023-02-26T02:04:47;0.70;;;0.70;;
483;SDS011;228;48.922;12.198;2023-02-26T02:07:15;1.33;;;1.03;;
483;SDS011;228;48.922;12.198;2023-02-26T02:09:42;2.30;;;1.13;;
483;SDS011;228;48.922;12.198;2023-02-26T02:17:44;1.17;;;0.97;;
483;SDS011;228;48.922;12.198;2023-02-26T02:20:45;1.17;;;0.97;;
483;SDS011;228;48.922;12.198;2023-02-26T02:23:42;1.10;;;1.00;;
483;SDS011;228;48.922;12.198;2023-02-26T02:26:34;0.80;;;0.80;;
483;SDS011;228;48.922;12.198;2023-02-26T02:35:19;1.70;;;1.30;;
483;SDS011;228;48.922;12.198;2023-02-26T02:38:04;1.90;;;1.10;;
483;SDS011;228;48.922;12.198;2023-02-26T02:40:45;1.40;;;1.30;;
483;SDS011;228;48.922;12.198;2023-02-26T02:43:19;0.70;;;0.70;;
483;SDS011;228;48.922;12.198;2023-02-26T02:46:24;1.03;;;0.87;;
483;SDS011;228;48.922;12.198;2023-02-26T02:51:40;0.73;;;0.73;;
483;SDS011;228;48.922;12.198;2023-02-26T02:54:25;0.80;;;0.80;;
483;SDS011;228;48.922;12.198;2023-02-26T02:57:18;2.07;;;0.87;;
483;SDS011;228;48.922;12.198;2023-02-26T02:59:55;1.57;;;0.93;;
483;SDS011;228;48.922;12.198;2023-02-26T03:02:27;1.60;;;0.93;;
483;SDS011;228;48.922;12.198;2023-02-26T03:04:57;1.07;;;0.97;;
483;SDS011;228;48.922;12.198;2023-02-26T03:07:24;0.83;;;0.83;;
483;SDS011;228;48.922;12.198;2023-02-26T03:09:50;0.80;;;0.80;;
483;SDS011;228;48.922;12.198;2023-02-26T03:12:16;0.63;;;0.63;;
483;SDS011;228;48.922;12.198;2023-02-26T03:14:44;0.97;;;0.80;;
483;SDS011;228;48.922;12.198;2023-02-26T03:20:08;0.80;;;0.80;;
483;SDS011;228;48.922;12.198;2023-02-26T03:25:39;3.00;;;0.77;;
483;SDS011;228;48.922;12.198;2023-02-26T03:31:07;1.40;;;1.30;;
483;SDS011;228;48.922;12.198;2023-02-26T03:36:43;0.83;;;0.83;;
483;SDS011;228;48.922;12.198;2023-02-26T03:39:41;2.50;;;0.67;;
483;SDS011;228;48.922;12.198;2023-02-26T03:44:56;2.00;;;0.80;;
483;SDS011;228;48.922;12.198;2023-02-26T03:47:37;0.63;;;0.63;;
483;SDS011;228;48.922;12.198;2023-02-26T03:50:28;1.40;;;0.93;;
483;SDS011;228;48.922;12.198;2023-02-26T03:53:32;3.20;;;0.63;;
483;SDS011;228;48.922;12.198;2023-02-26T03:58:55;0.67;;;0.67;;
483;SDS011;228;48.922;12.198;2023-02-26T04:01:46;0.90;;;0.90;;
483;SDS011;228;48.922;12.198;2023-02-26T04:04:23;2.50;;;0.90;;
483;SDS011;228;48.922;12.198;2023-02-26T04:07:07;0.93;;;0.70;;
483;SDS011;228;48.922;12.198;2023-02-26T04:09:35;1.90;;;0.87;;
483;SDS011;228;48.922;12.198;2023-02-26T04:12:02;1.07;;;0.97;;
483;SDS011;228;48.922;12.198;2023-02-26T04:14:28;1.07;;;0.97;;
483;SDS011;228;48.922;12.198;2023-02-26T04:16:54;0.90;;;0.90;;
483;SDS011;228;48.922;12.198;2023-02-26T04:19:21;1.70;;;0.80;;
483;SDS011;228;48.922;12.198;2023-02-26T04:21:46;3.03;;;0.87;;
483;SDS011;228;48.922;12.198;2023-02-26T04:24:14;0.97;;;0.90;;
483;SDS011;228;48.922;12.198;2023-02-26T04:26:42;1.13;;;1.03;;
483;SDS011;228;48.922;12.198;2023-02-26T04:29:08;0.80;;;0.80;;
483;SDS011;228;48.922;12.198;2023-02-26T04:31:35;1.17;;;1.07;;
483;SDS011;228;48.922;12.198;2023-02-26T04:34:01;1.50;;;1.00;;
483;SDS011;228;48.922;12.198;2023-02-26T04:36:28;0.90;;;0.90;;
483;SDS011;228;48.922;12.198;2023-02-26T04:38:56;0.70;;;0.70;;
483;SDS011;228;48.922;12.198;2023-02-26T04:41:22;1.17;;;1.00;;
483;SDS011;228;48.922;12.198;2023-02-26T04:43:49;1.63;;;1.20;;
483;SDS011;228;48.922;12.198;2023-02-26T04:46:24;0.93;;;0.93;;
483;SDS011;228;48.922;12.198;2023-02-26T04:48:50;1.83;;;1.10;;
483;SDS011;228;48.922;12.198;2023-02-26T04:51:16;1.03;;;0.87;;
483;SDS011;228;48.922;12.198;2023-02-26T04:53:42;1.60;;;1.30;;
483;SDS011;228;48.922;12.198;2023-02-26T04:56:09;5.17;;;1.33;;
483;SDS011;228;48.922;12.198;2023-02-26T04:58:35;4.40;;;1.30;;
483;SDS011;228;48.922;12.198;2023-02-26T05:01:06;1.00;;;0.90;;
483;SDS011;228;48.922;12.198;2023-02-26T05:03:32;2.00;;;1.10;;
483;SDS011;228;48.922;12.198;2023-02-26T05:05:58;0.90;;;0.90;;
483;SDS011;228;48.922;12.198;2023-02-26T05:08:25;1.47;;;1.30;;
483;SDS011;228;48.922;12.198;2023-02-26T05:10:51;1.30;;;1.00;;
483;SDS011;228;48.922;12.198;2023-02-26T05:13:17;1.50;;;1.10;;
483;SDS011;228;48.922;12.198;2023-02-26T05:15:44;1.03;;;0.93;;
483;SDS011;228;48.922;12.198;2023-02-26T05:18:11;1.30;;;1.20;;
483;SDS011;228;48.922;12.198;2023-02-26T05:20:37;1.33;;;1.23;;
483;SDS011;228;48.922;12.198;2023-02-26T05:23:03;2.83;;;1.63;;
483;SDS011;228;48.922;12.198;2023-02-26T05:25:29;1.77;;;1.20;;
483;SDS011;228;48.922;12.198;2023-02-26T05:27:55;1.53;;;1.37;;
483;SDS011;228;48.922;12.198;2023-02-26T05:30:22;1.00;;;1.00;;
483;SDS011;228;48.922;12.198;2023-02-26T05:32:48;1.33;;;1.23;;
483;SDS011;228;48.922;12.198;2023-02-26T05:35:14;3.30;;;1.43;;
483;SDS011;228;48.922;12.198;2023-02-26T05:37:40;1.07;;;0.97;;
483;SDS011;228;48.922;12.198;2023-02-26T05:40:07;1.10;;;1.10;;
483;SDS011;228;48.922;12.198;2023-02-26T05:42:38;2.60;;;1.20;;
483;SDS011;228;48.922;12.198;2023-02-26T05:45:04;1.50;;;1.20;;
483;SDS011;228;48.922;12.198;2023-02-26T05:47:32;2.67;;;1.23;;
483;SDS011;228;48.922;12.198;2023-02-26T05:49:59;1.47;;;1.20;;
483;SDS011;228;48.922;12.198;2023-02-26T05:52:25;1.30;;;1.20;;
483;SDS011;228;48.922;12.198;2023-02-26T05:54:52;1.73;;;1.63;;
483;SDS011;228;48.922;12.198;2023-02-26T05:57:18;1.37;;;1.27;;
483;SDS011;228;48.922;12.198;2023-02-26T05:59:44;1.40;;;1.30;;
483;SDS011;228;48.922;12.198;2023-02-26T06:02:10;1.50;;;1.10;;
483;SDS011;228;48.922;12.198;2023-02-26T06:04:36;1.20;;;1.10;;
483;SDS011;228;48.922;12.198;2023-02-26T06:07:02;1.13;;;1.00;;
483;SDS011;228;48.922;12.198;2023-02-26T06:09:29;1.10;;;1.00;;
483;SDS011;228;48.922;12.198;2023-02-26T06:11:54;1.40;;;1.10;;
483;SDS011;228;48.922;12.198;2023-02-26T06:14:20;2.43;;;1.50;;
483;SDS011;228;48.922;12.198;2023-02-26T06:16:47;1.23;;;1.13;;
483;SDS011;228;48.922;12.198;2023-02-26T06:19:13;1.37;;;1.27;;
483;SDS011;228;48.922;12.198;2023-02-26T06:21:39;2.53;;;1.60;;
483;SDS011;228;48.922;12.198;2023-02-26T06:24:05;1.30;;;1.20;;
483;SDS011;228;48.922;12.198;2023-02-26T06:26:31;1.13;;;1.03;;
483;SDS011;228;48.922;12.198;2023-02-26T06:28:57;1.17;;;1.07;;
483;SDS011;228;48.922;12.198;2023-02-26T06:31:23;1.23;;;1.13;;
483;SDS011;228;48.922;12.198;2023-02-26T06:33:49;1.53;;;1.30;;
483;SDS011;228;48.922;12.198;2023-02-26T06:36:15;1.20;;;1.10;;
483;SDS011;228;48.922;12.198;2023-02-26T06:38:41;1.50;;;1.40;;
483;SDS011;228;48.922;12.198;2023-02-26T06:41:09;1.50;;;1.40;;
483;SDS011;228;48.922;12.198;2023-02-26T06:43:36;1.30;;;1.20;;
483;SDS011;228;48.922;12.198;2023-02-26T06:46:02;0.90;;;0.83;;
483;SDS011;228;48.922;12.198;2023-02-26T06:48:28;0.80;;;0.80;;
483;SDS011;228;48.922;12.198;2023-02-26T06:50:54;2.10;;;1.27;;
483;SDS011;228;48.922;12.198;2023-02-26T06:53:20;1.47;;;1.07;;
483;SDS011;228;48.922;12.198;2023-02-26T06:55:48;1.43;;;1.30;;
483;SDS011;228;48.922;12.198;2023-02-26T06:58:16;1.00;;;1.00;;
483;SDS011;228;48.922;12.198;2023-02-26T07:00:43;1.27;;;1.03;;
483;SDS011;228;48.922;12.198;2023-02-26T07:03:14;1.13;;;1.00;;
483;SDS011;228;48.922;12.198;2023-02-26T07:05:41;2.30;;;1.13;;
483;SDS011;228;48.922;12.198;2023-02-26T07:08:09;1.50;;;1.40;;
483;SDS011;228;48.922;12.198;2023-02-26T07:10:35;2.67;;;1.40;;
483;SDS011;228;48.922;12.198;2023-02-26T07:13:02;1.40;;;1.30;;
483;SDS011;228;48.922;12.198;2023-02-26T07:15:29;3.77;;;1.73;;
483;SDS011;228;48.922;12.198;2023-02-26T07:17:55;1.47;;;1.37;;
483;SDS011;228;48.922;12.198;2023-02-26T07:20:21;2.80;;;1.40;;
483;SDS011;228;48.922;12.198;2023-02-26T07:22:47;3.03;;;1.47;;
483;SDS011;228;48.922;12.198;2023-02-26T07:25:14;1.67;;;1.47;;
483;SDS011;228;48.922;12.198;2023-02-26T07:27:40;2.13;;;1.60;;
483;SDS011;228;48.922;12.198;2023-02-26T07:30:06;2.60;;;1.27;;
483;SDS011;228;48.922;12.198;2023-02-26T07:32:33;1.73;;;1.63;;
483;SDS011;228;48.922;12.198;2023-02-26T07:35:00;1.60;;;1.20;;
483;SDS011;228;48.922;12.198;2023-02-26T07:37:26;2.27;;;1.30;;
483;SDS011;228;48.922;12.198;2023-02-26T07:39:53;1.53;;;1.37;;
483;SDS011;228;48.922;12.198;2023-02-26T07:42:20;2.20;;;1.50;;
483;SDS011;228;48.922;12.198;2023-02-26T07:44:46;3.37;;;1.80;;
483;SDS011;228;48.922;12.198;2023-02-26T07:47:12;2.00;;;1.70;;
483;SDS011;228;48.922;12.198;2023-02-26T07:49:38;4.60;;;2.63;;
483;SDS011;228;48.922;12.198;2023-02-26T07:52:04;1.63;;;1.53;;
483;SDS011;228;48.922;12.198;2023-02-26T07:54:34;1.80;;;1.60;;
483;SDS011;228;48.922;12.198;2023-02-26T07:57:02;1.87;;;1.77;;
483;SDS011;228;48.922;12.198;2023-02-26T07:59:29;2.73;;;1.93;;
483;SDS011;228;48.922;12.198;2023-02-26T08:01:55;3.80;;;1.53;;
483;SDS011;228;48.922;12.198;2023-02-26T08:04:21;2.47;;;1.90;;
483;SDS011;228;48.922;12.198;2023-02-26T08:06:47;1.53;;;1.17;;
483;SDS011;228;48.922;12.198;2023-02-26T08:09:13;1.63;;;1.20;;
483;SDS011;228;48.922;12.198;2023-02-26T08:11:39;1.80;;;1.37;;
483;SDS011;228;48.922;12.198;2023-02-26T08:14:07;2.23;;;1.47;;
483;SDS011;228;48.922;12.198;2023-02-26T08:16:35;2.27;;;1.20;;
483;SDS011;228;48.922;12.198;2023-02-26T08:19:01;1.47;;;1.23;;
483;SDS011;228;48.922;12.198;2023-02-26T08:21:27;1.47;;;1.33;;
483;SDS011;228;48.922;12.198;2023-02-26T08:23:53;1.97;;;1.47;;
483;SDS011;228;48.922;12.198;2023-02-26T08:26:19;1.20;;;1.10;;
483;SDS011;228;48.922;12.198;2023-02-26T08:28:45;1.40;;;1.30;;
483;SDS011;228;48.922;12.198;2023-02-26T08:31:12;1.33;;;1.23;;
483;SDS011;228;48.922;12.198;2023-02-26T08:33:39;1.67;;;1.57;;
483;SDS011;228;48.922;12.198;2023-02-26T08:36:06;1.60;;;1.50;;
483;SDS011;228;48.922;12.198;2023-02-26T08:38:32;1.20;;;1.10;;
483;SDS011;228;48.922;12.198;2023-02-26T08:40:58;2.37;;;1.53;;
483;SDS011;228;48.922;12.198;2023-02-26T08:43:25;1.47;;;1.20;;
483;SDS011;228;48.922;12.198;2023-02-26T08:45:52;1.27;;;1.17;;
483;SDS011;228;48.922;12.198;2023-02-26T08:48:19;1.10;;;1.00;;
483;SDS011;228;48.922;12.198;2023-02-26T08:50:45;1.20;;;1.10;;
483;SDS011;228;48.922;12.198;2023-02-26T08:53:11;1.10;;;1.00;;
483;SDS011;228;48.922;12.198;2023-02-26T08:55:37;1.93;;;1.33;;
483;SDS011;228;48.922;12.198;2023-02-26T08:58:03;1.50;;;1.40;;
483;SDS011;228;48.922;12.198;2023-02-26T09:00:30;1.20;;;1.10;;
483;SDS011;228;48.922;12.198;2023-02-26T09:02:56;1.17;;;1.03;;
483;SDS011;228;48.922;12.198;2023-02-26T09:05:22;4.57;;;1.33;;
483;SDS011;228;48.922;12.198;2023-02-26T09:07:48;0.83;;;0.83;;
483;SDS011;228;48.922;12.198;2023-02-26T09:10:14;3.00;;;1.30;;
483;SDS011;228;48.922;12.198;2023-02-26T09:12:41;1.63;;;1.30;;
483;SDS011;228;48.922;12.198;2023-02-26T09:15:08;1.37;;;1.27;;
483;SDS011;228;48.922;12.198;2023-02-26T09:17:36;1.60;;;1.43;;
483;SDS011;228;48.922;12.198;2023-02-26T09:20:03;1.30;;;1.20;;
483;SDS011;228;48.922;12.198;2023-02-26T09:22:29;2.17;;;1.47;;
483;SDS011;228;48.922;12.198;2023-02-26T09:24:55;1.37;;;1.27;;
483;SDS011;228;48.922;12.198;2023-02-26T09:27:22;1.93;;;1.40;;
483;SDS011;228;48.922;12.198;2023-02-26T09:29:48;1.23;;;1.10;;
483;SDS011;228;48.922;12.198;2023-02-26T09:32:14;2.40;;;1.20;;
483;SDS011;228;48.922;12.198;2023-02-26T09:34:40;1.30;;;1.20;;
483;SDS011;228;48.922;12.198;2023-02-26T09:37:06;1.60;;;1.50;;
483;SDS011;228;48.922;12.198;2023-02-26T09:39:33;2.07;;;1.40;;
483;SDS011;228;48.922;12.198;2023-02-26T09:45:39;1.10;;;1.00;;
483;SDS011;228;48.922;12.198;2023-02-26T09:48:07;2.10;;;1.07;;
483;SDS011;228;48.922;12.198;2023-02-26T09:50:41;1.30;;;1.20;;
483;SDS011;228;48.922;12.198;2023-02-26T09:53:28;1.40;;;1.30;;
483;SDS011;228;48.922;12.198;2023-02-26T09:56:06;2.47;;;1.67;;
483;SDS011;228;48.922;12.198;2023-02-26T09:58:40;1.67;;;1.50;;
483;SDS011;228;48.922;12.198;2023-02-26T10:07:06;1.67;;;1.40;;
483;SDS011;228;48.922;12.198;2023-02-26T10:12:48;4.17;;;2.23;;
483;SDS011;228;48.922;12.198;2023-02-26T10:18:02;2.07;;;1.40;;
483;SDS011;228;48.922;12.198;2023-02-26T10:23:31;4.23;;;2.53;;
483;SDS011;228;48.922;12.198;2023-02-26T10:37:43;1.57;;;1.37;;
483;SDS011;228;48.922;12.198;2023-02-26T10:40:31;1.37;;;1.10;;
483;SDS011;228;48.922;12.198;2023-02-26T10:43:13;1.33;;;1.10;;
483;SDS011;228;48.922;12.198;2023-02-26T10:45:57;1.63;;;1.50;;
483;SDS011;228;48.922;12.198;2023-02-26T10:51:46;1.73;;;1.60;;
483;SDS011;228;48.922;12.198;2023-02-26T10:54:23;1.67;;;1.20;;
483;SDS011;228;48.922;12.198;2023-02-26T10:57:01;1.20;;;1.10;;
483;SDS011;228;48.922;12.198;2023-02-26T10:59:29;1.27;;;1.13;;
483;SDS011;228;48.922;12.198;2023-02-26T11:01:56;1.10;;;0.93;;
483;SDS011;228;48.922;12.198;2023-02-26T11:04:25;1.17;;;1.07;;
483;SDS011;228;48.922;12.198;2023-02-26T11:07:01;1.20;;;0.90;;
483;SDS011;228;48.922;12.198;2023-02-26T11:09:33;1.40;;;1.30;;
483;SDS011;228;48.922;12.198;2023-02-26T11:14:35;0.90;;;0.90;;
483;SDS011;228;48.922;12.198;2023-02-26T11:17:21;0.97;;;0.97;;
483;SDS011;228;48.922;12.198;2023-02-26T11:19:58;1.40;;;1.10;;
483;SDS011;228;48.922;12.198;2023-02-26T11:22:46;1.43;;;1.30;;
483;SDS011;228;48.922;12.198;2023-02-26T11:25:18;1.30;;;1.17;;
483;SDS011;228;48.922;12.198;2023-02-26T11:27:52;1.87;;;1.20;;
483;SDS011;228;48.922;12.198;2023-02-26T11:30:25;1.90;;;1.33;;
483;SDS011;228;48.922;12.198;2023-02-26T11:32:56;3.23;;;1.50;;
483;SDS011;228;48.922;12.198;2023-02-26T11:35:28;2.53;;;1.90;;
483;SDS011;228;48.922;12.198;2023-02-26T11:37:56;1.30;;;1.20;;
483;SDS011;228;48.922;12.198;2023-02-26T11:40:36;1.30;;;1.20;;
483;SDS011;228;48.922;12.198;2023-02-26T11:43:06;1.27;;;1.20;;
483;SDS011;228;48.922;12.198;2023-02-26T11:45:38;1.47;;;1.33;;
483;SDS011;228;48.922;12.198;2023-02-26T11:48:11;3.53;;;1.67;;
483;SDS011;228;48.922;12.198;2023-02-26T11:50:46;1.20;;;1.10;;
483;SDS011;228;48.922;12.198;2023-02-26T11:53:18;2.10;;;1.63;;
483;SDS011;228;48.922;12.198;2023-02-26T11:56:13;5.47;;;1.73;;
483;SDS011;228;48.922;12.198;2023-02-26T11:58:49;3.10;;;1.67;;
483;SDS011;228;48.922;12.198;2023-02-26T12:01:17;1.87;;;1.40;;
483;SDS011;228;48.922;12.198;2023-02-26T12:03:44;3.20;;;1.47;;
483;SDS011;228;48.922;12.198;2023-02-26T12:06:22;1.80;;;1.70;;
483;SDS011;228;48.922;12.198;2023-02-26T12:08:51;1.77;;;1.40;;
483;SDS011;228;48.922;12.198;2023-02-26T12:11:25;1.40;;;1.30;;
483;SDS011;228;48.922;12.198;2023-02-26T12:14:42;1.77;;;1.50;;
483;SDS011;228;48.922;12.198;2023-02-26T12:20:10;1.50;;;1.40;;
483;SDS011;228;48.922;12.198;2023-02-26T12:40:46;1.30;;;1.20;;
483;SDS011;228;48.922;12.198;2023-02-26T12:43:41;1.60;;;1.30;;
483;SDS011;228;48.922;12.198;2023-02-26T12:46:34;1.70;;;1.30;;
483;SDS011;228;48.922;12.198;2023-02-26T12:49:37;1.30;;;1.20;;
483;SDS011;228;48.922;12.198;2023-02-26T12:52:17;1.27;;;1.17;;
483;SDS011;228;48.922;12.198;2023-02-26T13:04:13;0.90;;;0.90;;
483;SDS011;228;48.922;12.198;2023-02-26T13:07:21;3.30;;;1.30;;
483;SDS011;228;48.922;12.198;2023-02-26T13:12:51;5.07;;;2.60;;
483;SDS011;228;48.922;12.198;2023-02-26T13:15:46;4.70;;;2.13;;
483;SDS011;228;48.922;12.198;2023-02-26T13:21:05;6.03;;;2.20;;
483;SDS011;228;48.922;12.198;2023-02-26T13:23:41;1.40;;;1.30;;
483;SDS011;228;48.922;12.198;2023-02-26T13:26:22;1.00;;;0.90;;
483;SDS011;228;48.922;12.198;2023-02-26T13:34:35;1.40;;;1.30;;
483;SDS011;228;48.922;12.198;2023-02-26T13:43:17;1.40;;;1.30;;
483;SDS011;228;48.922;12.198;2023-02-26T13:48:37;1.43;;;1.33;;
483;SDS011;228;48.922;12.198;2023-02-26T13:54:01;1.20;;;1.20;;
483;SDS011;228;48.922;12.198;2023-02-26T14:04:50;1.20;;;1.10;;
483;SDS011;228;48.922;12.198;2023-02-26T14:08:07;1.80;;;1.70;;
483;SDS011;228;48.922;12.198;2023-02-26T14:10:23;2.60;;;1.33;;
483;SDS011;228;48.922;12.198;2023-02-26T14:18:57;1.30;;;1.20;;
483;SDS011;228;48.922;12.198;2023-02-26T14:24:20;1.43;;;1.30;;
483;SDS011;228;48.922;12.198;2023-02-26T14:27:42;2.60;;;1.00;;
483;SDS011;228;48.922;12.198;2023-02-26T14:29:43;2.07;;;1.53;;
483;SDS011;228;48.922;12.198;2023-02-26T14:32:34;1.60;;;1.50;;
483;SDS011;228;48.922;12.198;2023-02-26T14:35:29;1.97;;;1.67;;
483;SDS011;228;48.922;12.198;2023-02-26T14:40:38;2.40;;;1.97;;
483;SDS011;228;48.922;12.198;2023-02-26T14:43:14;4.10;;;2.30;;
483;SDS011;228;48.922;12.198;2023-02-26T14:45:46;3.73;;;2.40;;
483;SDS011;228;48.922;12.198;2023-02-26T14:48:16;3.50;;;2.33;;
483;SDS011;228;48.922;12.198;2023-02-26T14:59:24;1.83;;;1.57;;
483;SDS011;228;48.922;12.198;2023-02-26T15:25:18;1.90;;;1.53;;
483;SDS011;228;48.922;12.198;2023-02-26T15:27:56;2.40;;;1.63;;
483;SDS011;228;48.922;12.198;2023-02-26T15:30:22;1.30;;;1.20;;
483;SDS011;228;48.922;12.198;2023-02-26T15:32:54;1.60;;;1.47;;
483;SDS011;228;48.922;12.198;2023-02-26T15:35:23;1.20;;;1.10;;
483;SDS011;228;48.922;12.198;2023-02-26T15:37:53;1.77;;;1.43;;
483;SDS011;228;48.922;12.198;2023-02-26T15:40:23;1.53;;;1.33;;
483;SDS011;228;48.922;12.198;2023-02-26T15:42:54;2.20;;;1.63;;
483;SDS011;228;48.922;12.198;2023-02-26T15:45:25;3.07;;;1.83;;
483;SDS011;228;48.922;12.198;2023-02-26T15:47:54;2.50;;;1.90;;
483;SDS011;228;48.922;12.198;2023-02-26T15:50:27;2.63;;;1.73;;
483;SDS011;228;48.922;12.198;2023-02-26T15:53:00;2.43;;;1.87;;
483;SDS011;228;48.922;12.198;2023-02-26T15:55:33;1.50;;;1.40;;
483;SDS011;228;48.922;12.198;2023-02-26T15:58:18;2.27;;;1.60;;
483;SDS011;228;48.922;12.198;2023-02-26T16:01:16;4.67;;;3.13;;
483;SDS011;228;48.922;12.198;2023-02-26T16:03:45;5.50;;;3.10;;
483;SDS011;228;48.922;12.198;2023-02-26T16:06:16;3.83;;;1.90;;
483;SDS011;228;48.922;12.198;2023-02-26T16:08:50;2.10;;;1.40;;
483;SDS011;228;48.922;12.198;2023-02-26T16:11:16;3.70;;;2.23;;
483;SDS011;228;48.922;12.198;2023-02-26T16:13:42;2.77;;;2.00;;
483;SDS011;228;48.922;12.198;2023-02-26T16:16:26;2.57;;;1.77;;
483;SDS011;228;48.922;12.198;2023-02-26T16:19:02;2.13;;;1.30;;
483;SDS011;228;48.922;12.198;2023-02-26T16:21:33;3.67;;;1.50;;
483;SDS011;228;48.922;12.198;2023-02-26T16:24:04;1.70;;;1.60;;
483;SDS011;228;48.922;12.198;2023-02-26T16:26:40;2.87;;;1.93;;
483;SDS011;228;48.922;12.198;2023-02-26T16:29:16;3.77;;;1.80;;
483;SDS011;228;48.922;12.198;2023-02-26T16:31:50;2.87;;;2.37;;
483;SDS011;228;48.922;12.198;2023-02-26T16:34:34;5.67;;;2.53;;
483;SDS011;228;48.922;12.198;2023-02-26T16:37:19;3.27;;;2.40;;
483;SDS011;228;48.922;12.198;2023-02-26T16:48:23;3.10;;;2.27;;
483;SDS011;228;48.922;12.198;2023-02-26T16:50:58;2.87;;;2.57;;
483;SDS011;228;48.922;12.198;2023-02-26T16:53:35;2.70;;;2.03;;
483;SDS011;228;48.922;12.198;2023-02-26T16:56:12;2.40;;;1.77;;
483;SDS011;228;48.922;12.198;2023-02-26T16:58:44;2.83;;;1.80;;
483;SDS011;228;48.922;12.198;2023-02-26T17:01:16;2.03;;;1.80;;
483;SDS011;228;48.922;12.198;2023-02-26T17:03:45;1.70;;;1.60;;
483;SDS011;228;48.922;12.198;2023-02-26T17:06:15;1.93;;;1.77;;
483;SDS011;228;48.922;12.198;2023-02-26T17:08:52;2.53;;;2.20;;
483;SDS011;228;48.922;12.198;2023-02-26T17:11:29;2.37;;;2.03;;
483;SDS011;228;48.922;12.198;2023-02-26T17:16:50;3.67;;;1.80;;
483;SDS011;228;48.922;12.198;2023-02-26T17:19:17;2.30;;;1.60;;
483;SDS011;228;48.922;12.198;2023-02-26T17:21:48;4.53;;;2.67;;
483;SDS011;228;48.922;12.198;2023-02-26T17:24:32;2.60;;;2.20;;
483;SDS011;228;48.922;12.198;2023-02-26T17:27:01;2.60;;;2.33;;
483;SDS011;228;48.922;12.198;2023-02-26T17:29:36;4.60;;;2.40;;
483;SDS011;228;48.922;12.198;2023-02-26T17:32:11;4.03;;;3.20;;
483;SDS011;228;48.922;12.198;2023-02-26T17:34:51;7.63;;;3.60;;
483;SDS011;228;48.922;12.198;2023-02-26T17:37:17;8.67;;;5.10;;
483;SDS011;228;48.922;12.198;2023-02-26T17:39:45;10.07;;;4.23;;
483;SDS011;228;48.922;12.198;2023-02-26T17:42:12;9.70;;;4.83;;
483;SDS011;228;48.922;12.198;2023-02-26T17:44:40;10.93;;;5.23;;
483;SDS011;228;48.922;12.198;2023-02-26T17:47:20;6.97;;;3.67;;
483;SDS011;228;48.922;12.198;2023-02-26T17:49:50;10.10;;;3.90;;
483;SDS011;228;48.922;12.198;2023-02-26T17:52:18;4.93;;;2.53;;
483;SDS011;228;48.922;12.198;2023-02-26T17:54:44;5.47;;;2.97;;
483;SDS011;228;48.922;12.198;2023-02-26T17:57:15;10.63;;;3.80;;
483;SDS011;228;48.922;12.198;2023-02-26T17:59:44;3.57;;;2.20;;
483;SDS011;228;48.922;12.198;2023-02-26T18:02:21;2.83;;;2.10;;
483;SDS011;228;48.922;12.198;2023-02-26T18:04:52;2.47;;;2.27;;
483;SDS011;228;48.922;12.198;2023-02-26T18:07:18;2.77;;;2.00;;
483;SDS011;228;48.922;12.198;2023-02-26T18:09:46;2.50;;;1.70;;
483;SDS011;228;48.922;12.198;2023-02-26T18:12:13;2.10;;;1.53;;
483;SDS011;228;48.922;12.198;2023-02-26T18:14:41;1.87;;;1.77;;
483;SDS011;228;48.922;12.198;2023-02-26T18:17:12;2.10;;;1.50;;
483;SDS011;228;48.922;12.198;2023-02-26T18:19:40;2.20;;;1.57;;
483;SDS011;228;48.922;12.198;2023-02-26T18:22:11;3.47;;;1.87;;
483;SDS011;228;48.922;12.198;2023-02-26T18:24:38;3.30;;;1.60;;
483;SDS011;228;48.922;12.198;2023-02-26T18:27:05;3.63;;;1.80;;
483;SDS011;228;48.922;12.198;2023-02-26T18:29:37;2.37;;;1.90;;
483;SDS011;228;48.922;12.198;2023-02-26T18:32:03;2.27;;;2.07;;
483;SDS011;228;48.922;12.198;2023-02-26T18:34:29;1.97;;;1.70;;
483;SDS011;228;48.922;12.198;2023-02-26T18:36:55;2.80;;;2.33;;
483;SDS011;228;48.922;12.198;2023-02-26T18:39:21;3.37;;;2.43;;
483;SDS011;228;48.922;12.198;2023-02-26T18:41:51;2.20;;;1.80;;
483;SDS011;228;48.922;12.198;2023-02-26T18:44:17;1.97;;;1.70;;
483;SDS011;228;48.922;12.198;2023-02-26T18:46:43;3.27;;;2.70;;
483;SDS011;228;48.922;12.198;2023-02-26T18:49:14;2.40;;;2.07;;
483;SDS011;228;48.922;12.198;2023-02-26T18:51:43;2.17;;;1.40;;
483;SDS011;228;48.922;12.198;2023-02-26T18:54:10;1.93;;;1.60;;
483;SDS011;228;48.922;12.198;2023-02-26T18:56:36;1.53;;;1.43;;
483;SDS011;228;48.922;12.198;2023-02-26T18:59:03;1.50;;;1.40;;
483;SDS011;228;48.922;12.198;2023-02-26T19:01:30;1.90;;;1.67;;
483;SDS011;228;48.922;12.198;2023-02-26T19:03:56;2.83;;;1.50;;
483;SDS011;228;48.922;12.198;2023-02-26T19:06:22;5.57;;;2.70;;
483;SDS011;228;48.922;12.198;2023-02-26T19:08:48;4.57;;;2.33;;
483;SDS011;228;48.922;12.198;2023-02-26T19:11:14;2.27;;;1.67;;
483;SDS011;228;48.922;12.198;2023-02-26T19:13:41;3.40;;;2.30;;
483;SDS011;228;48.922;12.198;2023-02-26T19:16:07;2.00;;;1.80;;
483;SDS011;228;48.922;12.198;2023-02-26T19:18:33;4.60;;;3.20;;
483;SDS011;228;48.922;12.198;2023-02-26T19:20:59;3.47;;;2.67;;
483;SDS011;228;48.922;12.198;2023-02-26T19:23:26;3.27;;;2.37;;
483;SDS011;228;48.922;12.198;2023-02-26T19:25:52;3.47;;;3.03;;
483;SDS011;228;48.922;12.198;2023-02-26T19:28:18;2.77;;;2.07;;
483;SDS011;228;48.922;12.198;2023-02-26T19:30:45;2.17;;;1.97;;
483;SDS011;228;48.922;12.198;2023-02-26T19:33:11;3.60;;;2.03;;